Time;durP1;ratioP1;P1;durP2;ratioP2;P2;SDS_P1;SDS_P2;PMS_P1;PMS_P2;Temp;Humidity;BMP_temperature;BMP_pressure;BME280_temperature;BME280_humidity;BME280_pressure;Samples;Min_cycle;Max_cycle;Signal;HPM_P1;HPM_P2
2022/12/07 00:02:16;;;;;;;12.38;7.97;;;3.20;99.90;;;;;;5079975;28;20024;-69
2022/12/07 00:04:41;;;;;;;12.68;8.40;;;3.20;99.90;;;;;;5078813;28;20759;-68
2022/12/07 00:07:07;;;;;;;12.18;7.82;;;3.20;99.90;;;;;;5081395;28;20021;-68
2022/12/07 00:09:32;;;;;;;13.32;8.02;;;3.20;99.90;;;;;;5080652;28;20038;-68
2022/12/07 00:11:58;;;;;;;11.07;8.15;;;3.20;99.90;;;;;;5066564;28;20021;-69
2022/12/07 00:14:24;;;;;;;14.40;8.65;;;3.20;99.90;;;;;;5074517;28;20035;-69
2022/12/07 00:16:51;;;;;;;14.60;9.20;;;3.20;99.90;;;;;;5067567;28;20385;-69
2022/12/07 00:19:18;;;;;;;15.13;9.20;;;3.20;99.90;;;;;;5077834;28;20033;-68
2022/12/07 00:21:43;;;;;;;14.82;9.48;;;3.20;99.90;;;;;;5057922;28;20047;-68
2022/12/07 00:24:10;;;;;;;12.63;9.05;;;3.20;99.90;;;;;;5085051;28;20462;-68
2022/12/07 00:26:38;;;;;;;11.27;8.95;;;3.30;99.90;;;;;;5081587;28;20055;-68
2022/12/07 00:29:07;;;;;;;12.43;9.15;;;3.30;99.90;;;;;;5098799;28;20031;-67
2022/12/07 00:31:38;;;;;;;15.10;8.93;;;3.40;99.90;;;;;;5094668;28;20379;-68
2022/12/07 00:34:04;;;;;;;11.60;8.48;;;3.40;99.90;;;;;;5093562;28;20048;-68
2022/12/07 00:36:30;;;;;;;13.40;9.60;;;3.30;99.90;;;;;;5110779;28;20345;-67
2022/12/07 00:38:58;;;;;;;13.45;9.02;;;3.30;99.90;;;;;;5082702;28;20037;-68
2022/12/07 00:41:25;;;;;;;13.35;9.60;;;3.30;99.90;;;;;;5105115;28;20028;-67
2022/12/07 00:43:51;;;;;;;13.18;9.45;;;3.30;99.90;;;;;;5094110;28;20713;-68
2022/12/07 00:46:18;;;;;;;12.98;9.30;;;3.40;99.90;;;;;;5105943;28;20024;-67
2022/12/07 00:48:44;;;;;;;12.30;8.98;;;3.40;99.90;;;;;;5101172;28;20085;-68
2022/12/07 00:51:11;;;;;;;14.63;9.52;;;3.40;99.90;;;;;;5106441;28;20040;-68
2022/12/07 00:53:38;;;;;;;14.65;9.23;;;3.30;99.90;;;;;;5112063;28;20534;-67
2022/12/07 00:56:08;;;;;;;13.45;9.25;;;3.30;99.90;;;;;;5098112;28;20039;-68
2022/12/07 00:58:33;;;;;;;15.23;9.95;;;3.30;99.90;;;;;;5107703;28;20030;-67
2022/12/07 01:01:03;;;;;;;14.23;9.52;;;3.30;99.90;;;;;;5107104;28;20024;-69
2022/12/07 01:03:29;;;;;;;;;;;3.30;99.90;;;;;;5097830;28;20024;-67
2022/12/07 01:05:56;;;;;;;16.23;10.20;;;3.30;99.90;;;;;;5102768;28;19914;-67
2022/12/07 01:08:23;;;;;;;15.65;10.05;;;3.20;99.90;;;;;;5108650;28;20112;-67
2022/12/07 01:10:49;;;;;;;14.27;10.48;;;3.20;99.90;;;;;;5093334;28;20567;-67
2022/12/07 01:13:15;;;;;;;15.60;10.15;;;3.10;99.90;;;;;;5096934;28;20468;-68
2022/12/07 01:15:43;;;;;;;14.10;10.30;;;3.10;99.90;;;;;;5105535;28;20038;-67
2022/12/07 01:18:09;;;;;;;14.23;10.00;;;3.10;99.90;;;;;;5109274;28;20119;-68
2022/12/07 01:20:34;;;;;;;18.40;11.45;;;3.10;99.90;;;;;;5100618;28;20103;-67
2022/12/07 01:23:00;;;;;;;14.60;9.93;;;3.00;99.90;;;;;;5099238;28;20127;-69
2022/12/07 01:25:26;;;;;;;17.20;9.40;;;3.00;99.90;;;;;;5095721;28;20388;-67
2022/12/07 01:27:51;;;;;;;16.50;10.50;;;3.00;99.90;;;;;;5101319;28;20044;-68
2022/12/07 01:30:17;;;;;;;18.75;11.75;;;2.90;99.90;;;;;;5103003;28;20103;-67
2022/12/07 01:32:43;;;;;;;15.45;10.10;;;2.90;99.90;;;;;;5102252;28;20419;-67
2022/12/07 01:35:08;;;;;;;16.77;10.25;;;2.90;99.90;;;;;;5094304;28;20050;-67
2022/12/07 01:37:38;;;;;;;15.68;10.52;;;2.90;99.90;;;;;;5107606;28;20043;-67
2022/12/07 01:40:06;;;;;;;16.88;11.45;;;2.90;99.90;;;;;;5098928;28;20028;-67
2022/12/07 01:42:32;;;;;;;16.38;11.10;;;2.90;99.90;;;;;;5100324;28;20063;-67
2022/12/07 01:45:37;;;;;;;17.77;11.25;;;2.90;99.90;;;;;;5110072;28;20051;-68
2022/12/07 01:48:05;;;;;;;17.92;11.35;;;2.90;99.90;;;;;;5089651;28;20042;-68
2022/12/07 01:50:31;;;;;;;15.95;10.15;;;2.90;99.90;;;;;;5098472;27;20059;-67
2022/12/07 01:53:01;;;;;;;17.27;11.27;;;3.00;99.90;;;;;;5110175;28;20931;-68
2022/12/07 01:55:27;;;;;;;17.08;10.95;;;3.00;99.90;;;;;;5092017;28;20036;-67
2022/12/07 01:57:55;;;;;;;15.18;10.10;;;2.90;99.90;;;;;;5101390;28;20032;-67
2022/12/07 02:00:21;;;;;;;14.35;10.00;;;2.90;99.90;;;;;;5099056;28;20092;-67
2022/12/07 02:03:03;;;;;;;14.25;9.80;;;3.00;99.90;;;;;;5092834;28;20380;-67
2022/12/07 02:05:29;;;;;;;18.42;11.05;;;2.90;99.90;;;;;;5088264;28;20019;-67
2022/12/07 02:07:57;;;;;;;15.18;10.18;;;2.90;99.90;;;;;;5111449;28;20380;-67
2022/12/07 02:10:28;;;;;;;14.98;9.38;;;2.90;99.90;;;;;;5112029;28;20029;-67
2022/12/07 02:13:01;;;;;;;15.52;9.75;;;2.90;99.90;;;;;;5111626;28;20023;-67
2022/12/07 02:15:52;;;;;;;16.52;9.68;;;2.80;99.90;;;;;;5110549;28;20422;-67
2022/12/07 02:18:33;;;;;;;16.05;10.30;;;2.80;99.90;;;;;;5101034;28;20070;-67
2022/12/07 02:21:17;;;;;;;16.58;10.80;;;2.90;99.90;;;;;;5099723;28;20031;-68
2022/12/07 02:24:20;;;;;;;15.18;10.15;;;2.90;99.90;;;;;;5099903;28;20028;-67
2022/12/07 02:27:00;;;;;;;16.42;10.48;;;2.80;99.90;;;;;;5095123;28;20043;-67
2022/12/07 02:29:37;;;;;;;21.00;11.43;;;2.90;99.90;;;;;;5097553;28;20039;-67
2022/12/07 02:32:18;;;;;;;17.23;10.80;;;2.80;99.90;;;;;;5091851;28;20078;-67
2022/12/07 02:35:14;;;;;;;16.10;10.35;;;2.80;99.90;;;;;;5109551;28;20464;-67
2022/12/07 02:37:52;;;;;;;15.73;10.38;;;2.80;99.90;;;;;;5076704;28;20072;-68
2022/12/07 02:40:38;;;;;;;17.35;11.30;;;2.80;99.90;;;;;;5099404;28;20641;-67
2022/12/07 02:43:15;;;;;;;14.10;10.20;;;2.80;99.90;;;;;;5104252;28;20036;-67
2022/12/07 02:45:43;;;;;;;17.25;10.40;;;2.80;99.90;;;;;;5091512;28;20143;-67
2022/12/07 02:48:11;;;;;;;15.13;10.20;;;2.80;99.90;;;;;;5104743;28;20027;-68
2022/12/07 02:50:37;;;;;;;16.90;10.13;;;2.80;99.90;;;;;;5099810;28;20435;-68
2022/12/07 02:53:02;;;;;;;17.10;10.80;;;2.80;99.90;;;;;;5096469;28;20027;-69
2022/12/07 02:55:36;;;;;;;17.23;10.55;;;2.90;99.90;;;;;;5099368;28;20066;-69
2022/12/07 02:58:41;;;;;;;15.05;10.10;;;2.90;99.90;;;;;;5102620;28;20118;-70
2022/12/07 03:01:45;;;;;;;15.23;10.27;;;2.80;99.90;;;;;;5048343;28;20029;-69
2022/12/07 03:04:25;;;;;;;15.02;9.90;;;2.90;99.90;;;;;;5100597;28;20341;-68
2022/12/07 03:07:03;;;;;;;15.13;10.38;;;2.80;99.90;;;;;;5102782;28;20554;-69
2022/12/07 03:09:48;;;;;;;16.10;10.18;;;2.80;99.90;;;;;;5097275;28;20030;-68
2022/12/07 03:12:20;;;;;;;14.65;10.15;;;2.80;99.90;;;;;;5100095;28;20020;-68
2022/12/07 03:15:00;;;;;;;19.23;11.30;;;2.80;99.90;;;;;;5108609;28;20126;-68
2022/12/07 03:17:30;;;;;;;15.38;10.25;;;2.80;99.90;;;;;;5102204;28;20054;-69
2022/12/07 03:20:00;;;;;;;16.88;10.18;;;2.80;99.90;;;;;;5107091;28;20032;-69
2022/12/07 03:22:31;;;;;;;16.80;10.13;;;2.80;99.90;;;;;;5114034;28;20023;-69
2022/12/07 03:25:04;;;;;;;15.68;10.18;;;2.80;99.90;;;;;;5103538;28;20035;-69
2022/12/07 03:27:36;;;;;;;14.35;9.95;;;2.80;99.90;;;;;;5102952;28;20043;-69
2022/12/07 03:30:09;;;;;;;15.68;9.45;;;2.80;99.90;;;;;;5097588;28;20500;-71
2022/12/07 03:33:03;;;;;;;17.08;10.45;;;2.80;99.90;;;;;;5097192;28;20025;-69
2022/12/07 03:35:39;;;;;;;17.25;10.45;;;2.80;99.90;;;;;;5105174;28;20027;-69
2022/12/07 03:38:24;;;;;;;17.13;10.35;;;2.80;99.90;;;;;;5104904;28;20384;-70
2022/12/07 03:41:00;;;;;;;14.82;9.63;;;2.80;99.90;;;;;;5106950;28;20027;-69
2022/12/07 03:43:28;;;;;;;15.55;9.38;;;2.80;99.90;;;;;;5098171;28;20020;-69
2022/12/07 03:46:32;;;;;;;16.98;10.48;;;2.80;99.90;;;;;;5097577;28;20024;-69
2022/12/07 03:49:18;;;;;;;15.13;9.63;;;2.80;99.90;;;;;;5109037;28;20031;-71
2022/12/07 03:51:54;;;;;;;15.23;10.30;;;2.80;99.90;;;;;;5108891;28;20440;-69
2022/12/07 03:54:29;;;;;;;19.38;11.35;;;2.80;99.90;;;;;;5097015;28;20031;-69
2022/12/07 03:56:56;;;;;;;14.38;9.40;;;2.80;99.90;;;;;;5101496;28;20077;-69
2022/12/07 03:59:23;;;;;;;17.15;10.07;;;2.80;99.90;;;;;;5096939;28;20107;-68
2022/12/07 04:02:01;;;;;;;17.55;10.05;;;2.80;99.90;;;;;;5106621;28;20024;-68
2022/12/07 04:04:27;;;;;;;14.13;9.90;;;2.80;99.90;;;;;;5096842;28;20081;-68
2022/12/07 04:06:53;;;;;;;15.90;9.80;;;2.80;99.90;;;;;;5096981;28;20020;-68
2022/12/07 04:09:19;;;;;;;16.27;10.27;;;2.80;99.90;;;;;;5096623;28;20579;-68
2022/12/07 04:11:45;;;;;;;15.23;9.95;;;2.80;99.90;;;;;;5096195;28;20032;-70
2022/12/07 04:14:19;;;;;;;14.88;9.98;;;2.70;99.90;;;;;;5099405;28;20106;-69
2022/12/07 04:16:50;;;;;;;14.23;9.65;;;2.70;99.90;;;;;;5102020;28;20396;-68
2022/12/07 04:19:16;;;;;;;;;;;2.60;99.90;;;;;;5103907;28;20487;-68
2022/12/07 04:21:42;;;;;;;15.70;9.50;;;2.60;99.90;;;;;;5099871;28;19908;-68
2022/12/07 04:24:07;;;;;;;16.58;9.63;;;2.60;99.90;;;;;;5096522;28;20093;-68
2022/12/07 04:26:33;;;;;;;13.98;8.98;;;2.50;99.90;;;;;;5108189;28;20040;-68
2022/12/07 04:28:58;;;;;;;15.93;9.85;;;2.50;99.90;;;;;;5082308;28;20028;-70
2022/12/07 04:31:24;;;;;;;15.18;8.73;;;2.40;99.90;;;;;;5098550;28;20035;-69
2022/12/07 04:33:50;;;;;;;18.60;9.18;;;2.40;99.90;;;;;;5093335;28;20529;-69
2022/12/07 04:36:16;;;;;;;13.27;8.68;;;2.40;99.90;;;;;;5100365;28;20028;-69
2022/12/07 04:38:42;;;;;;;13.00;8.32;;;2.40;99.90;;;;;;5097132;28;20032;-69
2022/12/07 04:41:08;;;;;;;14.60;8.65;;;2.40;99.90;;;;;;5103632;28;20153;-69
2022/12/07 04:43:34;;;;;;;9.65;6.57;;;2.40;99.90;;;;;;5106780;28;20097;-69
2022/12/07 04:46:00;;;;;;;11.13;6.85;;;2.40;99.90;;;;;;5096147;28;20099;-70
2022/12/07 04:48:26;;;;;;;10.93;6.78;;;2.40;99.90;;;;;;5110801;28;20111;-69
2022/12/07 04:50:52;;;;;;;11.27;6.60;;;2.40;99.90;;;;;;5096663;28;20035;-68
2022/12/07 04:53:18;;;;;;;10.13;6.68;;;2.50;99.90;;;;;;5107848;28;20028;-68
2022/12/07 04:55:44;;;;;;;9.35;5.45;;;2.50;99.90;;;;;;5099229;28;20035;-68
2022/12/07 04:58:10;;;;;;;8.43;6.00;;;2.60;99.90;;;;;;5105316;28;20046;-68
2022/12/07 05:00:36;;;;;;;10.98;5.82;;;2.60;99.90;;;;;;5111397;28;20367;-69
2022/12/07 05:03:01;;;;;;;8.82;5.47;;;2.60;99.90;;;;;;5096973;28;20054;-71
2022/12/07 05:05:27;;;;;;;7.40;4.80;;;2.50;99.90;;;;;;5098514;28;20035;-68
2022/12/07 05:07:53;;;;;;;6.50;4.18;;;2.50;99.90;;;;;;5096337;28;20411;-69
2022/12/07 05:10:19;;;;;;;5.78;3.90;;;2.60;99.90;;;;;;5092580;28;20020;-68
2022/12/07 05:12:45;;;;;;;5.53;3.75;;;2.60;99.90;;;;;;5094656;28;20442;-69
2022/12/07 05:15:11;;;;;;;4.47;3.03;;;2.70;99.90;;;;;;5097914;28;20044;-68
2022/12/07 05:17:37;;;;;;;4.78;3.45;;;2.70;99.90;;;;;;5113050;28;20024;-68
2022/12/07 05:20:04;;;;;;;7.45;4.30;;;2.70;99.90;;;;;;5108960;28;20028;-69
2022/12/07 05:22:29;;;;;;;6.85;4.20;;;2.60;99.90;;;;;;5111970;28;20111;-69
2022/12/07 05:24:55;;;;;;;6.90;4.15;;;2.60;99.90;;;;;;5099487;28;20099;-69
2022/12/07 05:27:21;;;;;;;7.55;4.18;;;2.60;99.90;;;;;;5111668;28;20122;-69
2022/12/07 05:29:47;;;;;;;5.45;3.95;;;2.50;99.90;;;;;;5101106;28;20024;-69
2022/12/07 05:32:12;;;;;;;7.10;4.75;;;2.40;99.90;;;;;;5093395;28;20024;-69
2022/12/07 05:34:38;;;;;;;10.07;6.28;;;2.40;99.90;;;;;;5105393;28;20084;-69
2022/12/07 05:37:04;;;;;;;9.30;6.32;;;2.50;99.90;;;;;;5095434;28;20384;-69
2022/12/07 05:39:29;;;;;;;12.70;7.90;;;2.40;99.90;;;;;;5098791;28;20028;-68
2022/12/07 05:42:13;;;;;;;13.93;8.50;;;2.20;99.90;;;;;;5091458;28;20020;-69
2022/12/07 05:44:39;;;;;;;15.38;9.18;;;2.30;99.90;;;;;;5074377;28;20028;-69
2022/12/07 05:47:05;;;;;;;14.95;8.88;;;2.20;99.90;;;;;;5099636;28;20052;-68
2022/12/07 05:49:31;;;;;;;13.43;8.93;;;2.20;99.90;;;;;;5088963;28;20265;-69
2022/12/07 05:51:58;;;;;;;18.27;9.32;;;2.20;99.90;;;;;;5099984;28;20457;-69
2022/12/07 05:54:24;;;;;;;14.52;9.25;;;2.00;99.90;;;;;;5112221;28;20036;-69
2022/12/07 05:56:49;;;;;;;14.98;9.70;;;1.90;99.90;;;;;;5109996;28;20388;-68
2022/12/07 05:59:24;;;;;;;14.93;9.63;;;1.90;99.90;;;;;;5091133;28;20504;-69
2022/12/07 06:01:51;;;;;;;13.15;8.95;;;1.80;99.90;;;;;;5101740;28;20407;-69
2022/12/07 06:04:17;;;;;;;17.73;9.02;;;1.70;99.90;;;;;;5098218;28;20439;-69
2022/12/07 06:06:43;;;;;;;13.77;8.82;;;1.60;99.90;;;;;;5100807;28;20377;-68
2022/12/07 06:09:09;;;;;;;14.85;9.02;;;1.60;99.90;;;;;;5108858;28;20030;-68
2022/12/07 06:14:19;;;;;;;13.00;8.55;;;1.50;99.90;;;;;;5091025;28;20654;-69
2022/12/07 06:16:45;;;;;;;16.85;9.57;;;1.50;99.90;;;;;;5091280;28;20059;-70
2022/12/07 06:19:11;;;;;;;18.25;10.43;;;1.50;99.90;;;;;;5090906;28;20035;-69
2022/12/07 06:21:36;;;;;;;17.95;10.23;;;1.50;99.90;;;;;;5095067;28;20024;-70
2022/12/07 06:24:02;;;;;;;16.13;9.57;;;1.50;99.90;;;;;;5087148;28;20036;-69
2022/12/07 06:26:28;;;;;;;17.35;9.75;;;1.50;99.90;;;;;;5104540;28;20097;-70
2022/12/07 06:28:53;;;;;;;16.48;9.48;;;1.50;99.90;;;;;;5112227;28;20471;-69
2022/12/07 06:31:19;;;;;;;17.55;10.52;;;1.50;99.90;;;;;;5095272;28;20040;-68
2022/12/07 06:33:45;;;;;;;18.10;10.18;;;1.60;99.90;;;;;;5098755;28;20102;-69
2022/12/07 06:36:11;;;;;;;16.17;9.55;;;1.60;99.90;;;;;;5099888;28;20031;-69
2022/12/07 06:38:37;;;;;;;16.00;9.52;;;1.70;99.90;;;;;;5103163;28;20076;-69
2022/12/07 06:41:02;;;;;;;17.17;9.10;;;1.70;99.90;;;;;;5098069;28;20020;-70
2022/12/07 06:43:28;;;;;;;19.15;9.80;;;1.70;99.90;;;;;;5097671;28;20066;-71
2022/12/07 06:45:54;;;;;;;22.52;11.70;;;1.70;99.90;;;;;;5101262;28;20111;-68
2022/12/07 06:48:20;;;;;;;20.33;11.25;;;1.80;99.90;;;;;;5107332;28;20019;-69
2022/12/07 06:50:46;;;;;;;17.60;10.80;;;1.80;99.90;;;;;;5096884;28;20024;-69
2022/12/07 06:53:11;;;;;;;15.70;9.43;;;1.80;99.90;;;;;;5099184;28;20471;-69
2022/12/07 06:55:37;;;;;;;13.52;9.02;;;1.80;99.90;;;;;;5100524;28;20035;-70
2022/12/07 06:58:02;;;;;;;17.63;8.90;;;1.80;99.90;;;;;;5103695;28;20024;-70
2022/12/07 07:00:29;;;;;;;13.63;8.18;;;1.80;99.90;;;;;;5100759;28;20460;-70
2022/12/07 07:02:55;;;;;;;11.60;7.22;;;1.80;99.90;;;;;;5103947;28;20038;-71
2022/12/07 07:05:21;;;;;;;14.52;7.78;;;1.80;99.90;;;;;;5095455;28;20024;-69
2022/12/07 07:07:48;;;;;;;12.82;7.30;;;1.90;99.90;;;;;;5098643;28;20028;-72
2022/12/07 07:10:14;;;;;;;10.80;6.57;;;1.90;99.90;;;;;;5097864;28;20028;-70
2022/12/07 07:12:40;;;;;;;11.68;7.00;;;2.00;99.90;;;;;;5092792;28;20106;-71
2022/12/07 07:15:06;;;;;;;12.77;7.55;;;2.10;99.90;;;;;;5099641;28;20507;-73
2022/12/07 07:17:32;;;;;;;10.77;6.57;;;2.20;99.90;;;;;;5089121;28;20036;-72
2022/12/07 07:19:58;;;;;;;12.68;6.90;;;2.20;99.90;;;;;;5093042;28;20054;-71
2022/12/07 07:22:23;;;;;;;11.43;7.25;;;2.30;99.90;;;;;;5090819;28;20032;-71
2022/12/07 07:24:49;;;;;;;10.27;6.35;;;2.30;99.90;;;;;;5106854;28;20496;-72
2022/12/07 07:27:14;;;;;;;16.00;6.57;;;2.30;99.90;;;;;;5076509;28;20056;-73
2022/12/07 07:29:40;;;;;;;10.73;6.32;;;2.40;99.90;;;;;;5076389;28;20388;-71
2022/12/07 07:32:07;;;;;;;9.18;5.28;;;2.40;99.90;;;;;;5083485;28;20553;-71
2022/12/07 07:34:33;;;;;;;8.50;5.50;;;2.50;99.90;;;;;;5074630;28;20033;-70
2022/12/07 07:36:59;;;;;;;7.22;5.07;;;2.60;99.90;;;;;;5068847;28;20111;-70
2022/12/07 07:39:25;;;;;;;8.93;5.43;;;2.60;99.90;;;;;;5070290;28;20036;-69
2022/12/07 07:41:51;;;;;;;8.05;5.13;;;2.60;99.90;;;;;;5081211;28;20033;-69
2022/12/07 07:44:16;;;;;;;8.55;5.53;;;2.60;99.90;;;;;;5069382;28;20473;-69
2022/12/07 07:46:42;;;;;;;8.25;5.50;;;2.60;99.90;;;;;;5068169;28;20052;-69
2022/12/07 07:49:10;;;;;;;8.43;5.20;;;2.70;99.90;;;;;;5080753;28;20020;-69
2022/12/07 07:51:35;;;;;;;12.68;5.30;;;2.70;99.90;;;;;;5062774;28;20371;-70
2022/12/07 07:54:01;;;;;;;10.38;5.30;;;2.80;99.90;;;;;;5065994;28;20078;-71
2022/12/07 07:56:27;;;;;;;8.70;5.20;;;2.80;99.90;;;;;;5071005;28;20485;-74
2022/12/07 07:58:53;;;;;;;8.60;5.30;;;2.80;99.90;;;;;;5074155;28;20017;-74
2022/12/07 08:01:19;;;;;;;6.22;4.50;;;2.80;99.90;;;;;;5084114;28;20598;-73
2022/12/07 08:03:46;;;;;;;7.93;4.68;;;2.90;99.90;;;;;;5083175;28;20031;-74
2022/12/07 08:06:12;;;;;;;8.55;4.95;;;2.90;99.90;;;;;;5082403;28;20124;-74
2022/12/07 08:08:38;;;;;;;9.23;5.38;;;3.00;99.90;;;;;;5086526;28;20059;-73
2022/12/07 08:11:08;;;;;;;8.88;5.78;;;3.00;99.90;;;;;;5075550;28;20060;-70
2022/12/07 08:13:34;;;;;;;7.20;4.78;;;3.10;99.90;;;;;;5086188;28;20423;-68
2022/12/07 08:16:04;;;;;;;8.98;5.93;;;3.10;99.90;;;;;;5081932;28;20030;-68
2022/12/07 08:18:29;;;;;;;9.63;5.03;;;3.10;99.90;;;;;;5073329;28;20028;-69
2022/12/07 08:21:02;;;;;;;8.13;5.22;;;3.20;99.90;;;;;;5072887;28;20112;-69
2022/12/07 08:23:27;;;;;;;7.07;5.32;;;3.20;99.90;;;;;;5059815;28;20472;-68
2022/12/07 08:25:53;;;;;;;7.40;5.35;;;3.20;99.90;;;;;;5079305;28;20135;-69
2022/12/07 08:28:19;;;;;;;7.35;5.35;;;3.30;99.90;;;;;;5072604;28;20016;-68
2022/12/07 08:30:44;;;;;;;10.27;5.78;;;3.30;99.90;;;;;;5073219;28;20032;-68
2022/12/07 08:33:10;;;;;;;7.50;5.47;;;3.40;99.90;;;;;;5080580;28;20039;-69
2022/12/07 08:35:36;;;;;;;8.45;5.50;;;3.40;99.90;;;;;;5085181;28;20062;-68
2022/12/07 08:38:03;;;;;;;8.95;5.30;;;3.40;99.90;;;;;;5070818;28;20024;-70
2022/12/07 08:40:29;;;;;;;8.05;5.43;;;3.50;99.90;;;;;;5073161;28;20025;-70
2022/12/07 08:42:55;;;;;;;10.13;5.57;;;3.60;99.90;;;;;;5074325;28;20025;-70
2022/12/07 08:45:21;;;;;;;10.32;5.60;;;3.60;99.90;;;;;;5076238;28;20557;-70
2022/12/07 08:48:06;;;;;;;7.65;5.20;;;3.60;99.90;;;;;;5077956;28;20334;-67
2022/12/07 08:50:33;;;;;;;10.02;5.82;;;3.70;99.90;;;;;;5080594;28;20423;-68
2022/12/07 08:52:59;;;;;;;8.23;5.07;;;3.80;99.90;;;;;;5090775;28;20047;-71
2022/12/07 08:55:27;;;;;;;9.50;5.70;;;3.80;99.90;;;;;;5084328;28;20032;-69
2022/12/07 08:57:53;;;;;;;9.57;4.88;;;3.90;99.90;;;;;;5086016;28;20054;-68
2022/12/07 09:00:18;;;;;;;10.25;5.38;;;3.90;99.90;;;;;;5080434;28;20024;-69
2022/12/07 09:02:45;;;;;;;8.50;5.32;;;4.00;99.90;;;;;;5062738;28;20055;-69
2022/12/07 09:05:11;;;;;;;9.02;6.18;;;4.00;99.90;;;;;;5077262;28;20020;-69
2022/12/07 09:07:38;;;;;;;10.95;5.40;;;4.10;99.90;;;;;;5082925;28;20124;-69
2022/12/07 09:10:06;;;;;;;13.40;6.15;;;4.10;99.90;;;;;;5082877;28;20547;-70
2022/12/07 09:12:32;;;;;;;7.72;5.05;;;4.20;99.90;;;;;;5077062;28;20024;-70
2022/12/07 09:14:57;;;;;;;9.98;5.47;;;4.20;99.90;;;;;;5083880;28;20032;-70
2022/12/07 09:17:23;;;;;;;8.43;5.25;;;4.30;99.90;;;;;;5076689;28;20418;-71
2022/12/07 09:19:49;;;;;;;8.10;4.72;;;4.30;99.90;;;;;;5078535;28;20024;-67
2022/12/07 09:22:14;;;;;;;8.48;4.68;;;4.40;99.90;;;;;;5063764;28;20027;-68
2022/12/07 09:24:40;;;;;;;8.23;5.30;;;4.50;99.90;;;;;;5083843;28;20068;-70
2022/12/07 09:27:05;;;;;;;6.55;4.70;;;4.60;99.90;;;;;;5088614;28;20043;-68
2022/12/07 09:29:31;;;;;;;9.25;5.22;;;4.60;99.90;;;;;;5092611;28;20098;-67
2022/12/07 09:31:57;;;;;;;7.20;4.75;;;4.60;99.90;;;;;;5098118;28;20111;-67
2022/12/07 09:34:22;;;;;;;6.25;4.43;;;4.70;99.90;;;;;;5085969;28;20472;-67
2022/12/07 09:36:48;;;;;;;8.85;4.68;;;4.70;99.90;;;;;;5101051;28;20024;-68
2022/12/07 09:39:14;;;;;;;6.35;4.80;;;4.80;99.90;;;;;;5093422;28;20453;-69
2022/12/07 09:41:44;;;;;;;8.80;4.35;;;4.80;99.90;;;;;;5098911;28;20107;-68
2022/12/07 09:44:13;;;;;;;7.30;4.88;;;4.90;99.90;;;;;;5110202;28;20092;-68
2022/12/07 09:46:41;;;;;;;8.68;4.90;;;4.90;99.90;;;;;;5092822;28;20022;-69
2022/12/07 09:49:16;;;;;;;9.82;4.53;;;5.00;99.90;;;;;;5098173;28;20047;-68
2022/12/07 09:51:42;;;;;;;8.15;4.30;;;5.00;99.90;;;;;;5096236;28;20078;-68
2022/12/07 09:54:12;;;;;;;6.20;4.30;;;5.10;99.90;;;;;;5108274;28;20418;-67
2022/12/07 09:56:37;;;;;;;6.22;3.95;;;5.20;99.90;;;;;;5099310;28;20098;-67
2022/12/07 09:59:03;;;;;;;8.27;4.95;;;5.20;99.90;;;;;;5095376;28;20036;-69
2022/12/07 10:01:33;;;;;;;6.88;4.10;;;5.30;99.90;;;;;;5101575;28;20032;-68
2022/12/07 10:04:16;;;;;;;5.35;4.05;;;5.40;99.90;;;;;;5103557;28;20080;-69
2022/12/07 10:06:42;;;;;;;6.50;3.35;;;5.50;99.90;;;;;;5100151;28;20043;-69
2022/12/07 10:09:19;;;;;;;4.93;3.42;;;5.60;99.90;;;;;;5095123;28;20081;-69
2022/12/07 10:12:01;;;;;;;7.35;3.88;;;5.70;99.90;;;;;;5087073;28;20460;-68
2022/12/07 10:14:29;;;;;;;6.38;3.30;;;5.70;99.90;;;;;;5100396;27;20040;-67
2022/12/07 10:16:55;;;;;;;8.45;3.83;;;5.70;99.90;;;;;;5092926;28;20442;-69
2022/12/07 10:19:26;;;;;;;6.93;4.13;;;5.60;99.90;;;;;;5096878;28;20085;-68
2022/12/07 10:22:16;;;;;;;7.22;4.03;;;5.60;99.90;;;;;;5097600;28;20464;-69
2022/12/07 10:24:46;;;;;;;6.10;4.00;;;5.70;99.90;;;;;;5095208;28;20032;-68
2022/12/07 10:27:28;;;;;;;4.20;3.08;;;5.70;99.90;;;;;;5080136;28;20151;-70
2022/12/07 10:29:54;;;;;;;5.68;3.10;;;5.80;99.90;;;;;;5077054;28;20115;-69
2022/12/07 10:32:20;;;;;;;7.63;3.70;;;5.80;99.90;;;;;;5078762;28;20102;-69
2022/12/07 10:34:45;;;;;;;3.83;2.88;;;5.90;99.90;;;;;;5065630;28;20028;-68
2022/12/07 10:39:55;;;;;;;4.63;3.08;;;5.90;99.90;;;;;;5076184;28;20025;-69
2022/12/07 10:42:26;;;;;;;4.63;3.05;;;5.90;99.90;;;;;;5073863;28;20029;-69
2022/12/07 10:45:09;;;;;;;4.28;2.22;;;5.90;99.90;;;;;;5076220;28;20032;-71
2022/12/07 10:48:10;;;;;;;6.25;3.30;;;5.80;99.90;;;;;;5076586;28;20032;-69
2022/12/07 10:51:18;;;;;;;4.25;2.90;;;5.70;99.90;;;;;;5054708;28;20033;-70
2022/12/07 10:53:56;;;;;;;5.63;3.22;;;5.70;99.90;;;;;;5069247;28;20537;-69
2022/12/07 10:56:44;;;;;;;5.65;2.95;;;5.60;99.90;;;;;;5070797;28;20032;-70
2022/12/07 10:59:23;;;;;;;8.90;2.75;;;5.60;99.90;;;;;;5076720;28;20035;-72
2022/12/07 11:01:48;;;;;;;5.22;3.10;;;5.50;99.90;;;;;;5070159;28;20473;-70
2022/12/07 11:04:41;;;;;;;4.05;3.25;;;5.50;99.90;;;;;;5078224;28;20077;-70
2022/12/07 11:07:15;;;;;;;4.00;3.00;;;5.40;99.90;;;;;;5078797;28;20031;-69
2022/12/07 11:10:02;;;;;;;3.72;2.85;;;5.40;99.90;;;;;;5082281;28;20081;-68
2022/12/07 11:12:56;;;;;;;6.18;3.10;;;5.40;99.90;;;;;;5059669;28;20029;-68
2022/12/07 11:15:31;;;;;;;6.35;3.03;;;5.30;99.90;;;;;;5083148;28;20074;-70
2022/12/07 11:18:04;;;;;;;5.72;3.45;;;5.40;99.90;;;;;;5081188;28;20065;-69
2022/12/07 11:21:03;;;;;;;5.28;2.55;;;5.30;99.90;;;;;;5074256;28;20028;-70
2022/12/07 11:24:08;;;;;;;4.45;2.72;;;5.20;99.90;;;;;;5081049;28;20028;-77
2022/12/07 11:27:11;;;;;;;4.78;2.97;;;5.20;99.90;;;;;;5083413;28;20396;-73
2022/12/07 11:29:57;;;;;;;4.97;2.72;;;5.20;99.90;;;;;;5095775;28;20032;-68
2022/12/07 11:32:52;;;;;;;4.22;2.53;;;5.20;99.90;;;;;;5095922;28;20064;-69
2022/12/07 11:35:42;;;;;;;4.00;2.70;;;5.20;99.90;;;;;;5097017;28;20161;-73
2022/12/07 11:38:21;;;;;;;6.37;2.37;;;5.20;99.90;;;;;;5098819;28;20092;-69
2022/12/07 11:40:51;;;;;;;3.75;2.60;;;5.10;99.90;;;;;;5095643;28;20034;-70
2022/12/07 11:43:19;;;;;;;3.67;2.70;;;5.10;99.90;;;;;;5097070;28;20040;-69
2022/12/07 11:45:54;;;;;;;4.95;2.80;;;5.10;99.90;;;;;;5108779;28;20028;-69
2022/12/07 11:48:31;;;;;;;3.65;2.63;;;5.10;99.90;;;;;;5098011;28;20020;-69
2022/12/07 11:51:00;;;;;;;5.05;2.75;;;5.10;99.90;;;;;;5093327;28;20136;-69
2022/12/07 11:53:33;;;;;;;4.63;3.25;;;5.10;99.90;;;;;;5102436;28;20057;-68
2022/12/07 11:56:16;;;;;;;5.70;2.65;;;5.10;99.90;;;;;;5095031;28;20541;-68
2022/12/07 11:58:47;;;;;;;3.80;3.03;;;5.20;99.90;;;;;;5099931;28;20028;-70
2022/12/07 12:01:37;;;;;;;5.40;3.03;;;5.20;99.90;;;;;;5096447;28;20481;-70
2022/12/07 12:04:26;;;;;;;5.50;3.70;;;5.20;99.90;;;;;;5107166;28;20134;-70
2022/12/07 12:06:52;;;;;;;8.07;4.00;;;5.10;99.90;;;;;;5090996;28;20073;-69
2022/12/07 12:09:21;;;;;;;6.55;4.20;;;5.00;99.90;;;;;;5100080;28;20064;-69
2022/12/07 12:11:52;;;;;;;5.03;3.80;;;5.00;99.90;;;;;;5099308;28;20065;-70
2022/12/07 12:14:41;;;;;;;11.93;5.82;;;4.90;99.90;;;;;;5102671;28;20586;-70
2022/12/07 12:17:44;;;;;;;7.28;5.18;;;4.90;99.90;;;;;;5080603;28;20032;-69
2022/12/07 12:20:45;;;;;;;8.48;4.35;;;4.90;99.90;;;;;;5094345;28;20091;-69
2022/12/07 12:23:45;;;;;;;6.03;4.60;;;4.90;99.90;;;;;;5091665;28;20053;-69
2022/12/07 12:26:21;;;;;;;7.63;4.82;;;4.90;99.90;;;;;;5099230;28;20909;-70
2022/12/07 12:28:55;;;;;;;6.45;5.03;;;4.90;99.90;;;;;;5103477;28;20035;-68
2022/12/07 12:31:21;;;;;;;7.03;4.97;;;4.80;99.90;;;;;;5100260;28;20020;-68
2022/12/07 12:33:50;;;;;;;9.82;5.32;;;4.80;99.90;;;;;;5106721;28;20027;-69
2022/12/07 12:36:24;;;;;;;9.10;5.33;;;4.80;99.90;;;;;;5100097;28;20032;-70
2022/12/07 12:39:08;;;;;;;8.05;5.68;;;4.80;99.90;;;;;;5099760;28;20266;-69
2022/12/07 12:41:38;;;;;;;7.03;5.35;;;4.80;99.90;;;;;;5103137;28;20043;-70
2022/12/07 12:44:29;;;;;;;7.90;5.38;;;4.80;99.90;;;;;;5100235;28;20036;-70
2022/12/07 12:47:01;;;;;;;7.45;5.00;;;4.90;99.90;;;;;;5091409;28;20089;-68
2022/12/07 12:49:45;;;;;;;7.70;5.13;;;5.00;99.90;;;;;;5105550;28;20020;-67
2022/12/07 12:52:14;;;;;;;8.45;5.35;;;5.00;99.90;;;;;;5099628;28;20036;-69
2022/12/07 12:54:59;;;;;;;6.72;4.90;;;5.00;99.90;;;;;;5104867;27;20038;-69
2022/12/07 12:57:30;;;;;;;6.90;3.80;;;4.90;99.90;;;;;;5101802;28;20091;-70
2022/12/07 12:59:58;;;;;;;6.63;4.32;;;4.90;99.90;;;;;;5107746;28;20027;-70
2022/12/07 13:02:39;;;;;;;7.70;4.55;;;4.90;99.90;;;;;;5104352;28;20020;-68
2022/12/07 13:05:09;;;;;;;9.35;5.38;;;4.80;99.90;;;;;;5101689;28;20039;-70
2022/12/07 13:07:44;;;;;;;6.97;4.97;;;4.90;99.90;;;;;;5088431;28;20034;-70
2022/12/07 13:10:32;;;;;;;6.55;4.43;;;4.90;99.90;;;;;;5099647;28;20020;-69
2022/12/07 13:13:10;;;;;;;7.50;3.97;;;5.00;99.90;;;;;;5087074;28;22902;-69
2022/12/07 13:16:03;;;;;;;5.30;4.07;;;5.00;99.90;;;;;;5102703;28;20130;-69
2022/12/07 13:18:32;;;;;;;8.75;4.97;;;4.90;99.90;;;;;;5098927;28;20032;-69